Pasadena 2N

39° 08' 31"N, 76° 30' 27"W, Elevation 43 ft.
Eastern Time

Hourly observations for the last 72 hours

Date Time Temperature (°F) Humi-
dity

(%)
Wind
(mph)
Pressure Rain (in) Sun
(W/m2)
ET
(in)
Air Dew 6 Hour 1 Hr 3 Hr 6 Hr Day
Alt
(in)
Sea
Level

(mb)
Max Min
11 17:00 89.8 80.4 74 E 3 G 12 29.88 1012.0 0.00 483 0.109
11 16:00 89.8 79.6 72 SE 4 G 11 29.89 1012.1 0.00 663 0.093
11 15:00 90.3 80.5 73 SSE 2 G 12 29.90 1012.5 0.00 814 0.073
11 14:00 89.9 79.2 90.2 75.8 71 S 3 G 7 29.92 1013.2 0.00 886 0.051
11 13:00 89.0 78.0 70 SSE 4 G 11 29.94 1013.9 0.00 823 0.029
11 12:00 87.6 78.7 75 SSE 4 G 10 29.96 1014.5 0.00 800 0.009
11 11:00 84.6 78.1 81 E 2 G 7 29.96 1014.6 0.00 543 0.004
11 10:00 82.6 77.3 84 SSE 3 G 8 29.95 1014.3 0.00 58 0.002
11 09:00 79.3 76.1 90 E 1 G 3 29.95 1014.2 0.00 47 0.001
11 08:00 75.8 74.6 75.9 74.3 96 SSE 1 G 6 29.94 1014.0 0.00 46 0.000
11 07:00 74.6 73.7 97 SE 0 G 2 29.94 1013.9 0.00 26 0.000
11 06:00 74.7 73.5 96 Calm 29.93 1013.6 0.00 0 0.000
11 05:00 75.0 74.1 97 SE 0 G 4 29.91 1013.0 0.00 0 0.000
11 04:00 75.0 73.8 96 SSE 0 G 1 29.92 1013.3 0.00 0 0.000
11 03:00 75.7 74.5 96 Calm 29.94 1014.1 0.00 0 0.000
11 02:00 75.8 74.3 82.2 75.7 95 Calm 29.95 1014.2 0.00 0 0.000
11 01:00 76.7 74.8 94 Calm 29.96 1014.7 0.00 0 0.000
11 00:00 77.7 75.5 93 Calm 29.96 1014.5 0.00 0 0.154
10 23:00 78.6 76.4 93 SSE 0 G 2 29.95 1014.4 0.00 0 0.154
10 22:00 79.0 76.1 91 SSE 1 G 4 29.95 1014.3 0.00 0 0.153
10 21:00 79.4 74.8 86 SSE 0 G 5 29.94 1013.8 0.00 0 0.153
10 20:00 82.2 75.8 92.1 82.2 81 SSE 1 G 4 29.94 1013.8 0.00 5 0.152
10 19:00 85.4 75.8 73 SSE 2 G 8 29.93 1013.6 0.00 47 0.148
10 18:00 89.3 73.6 60 SSE 3 G 7 29.95 1014.3 0.00 301 0.136
10 17:00 90.8 73.5 57 SSE 5 G 9 29.96 1014.5 0.00 494 0.119
10 16:00 92.0 74.6 57 SE 2 G 7 29.98 1015.1 0.00 649 0.099
10 15:00 91.3 75.5 60 SSE 4 G 10 29.98 1015.4 0.00 768 0.076
10 14:00 91.6 78.2 91.6 75.3 65 ESE 3 G 9 30.00 1016.0 0.00 837 0.052
10 13:00 90.1 78.6 69 SSE 3 G 8 30.02 1016.6 0.00 881 0.030
10 12:00 88.8 81.1 78 NE 4 G 8 30.03 1017.1 0.00 851 0.009
10 11:00 85.1 79.7 84 NNE 0 G 5 30.04 1017.3 0.00 684 0.004
10 10:00 81.6 77.7 88 WNW 0 G 3 30.04 1017.3 0.00 62 0.002
10 09:00 78.8 76.3 92 SW 0 G 2 30.04 1017.2 0.00 49 0.001
10 08:00 75.3 74.4 76.2 73.2 97 NE 0 G 1 30.04 1017.3 0.00 39 0.000
10 07:00 73.4 72.2 96 Calm 30.04 1017.3 0.00 19 0.000
10 06:00 73.7 72.5 96 Calm 30.04 1017.2 0.00 0 0.000
10 05:00 74.7 73.2 95 SSE 0 G 4 30.03 1017.1 0.00 0 0.000
10 04:00 75.2 73.7 95 SSE 1 G 4 30.04 1017.2 0.00 0 0.000
10 03:00 75.9 74.0 94 SSE 1 G 5 30.03 1017.0 0.00 0 0.000
10 02:00 76.2 74.3 82.2 76.1 94 ESE 0 G 2 30.04 1017.2 0.00 0 0.000
10 01:00 76.9 74.7 93 SSW 0 G 5 30.04 1017.4 0.00 0 0.000
10 00:00 76.5 74.6 94 SSE 2 G 5 30.04 1017.4 0.00 0 0.117
9 23:00 77.3 74.8 92 Calm 30.05 1017.7 0.00 0 0.117
9 22:00 78.6 75.8 91 SE 0 G 2 30.05 1017.7 0.00 0 0.117
9 21:00 79.9 76.7 90 SSE 1 G 3 30.04 1017.3 0.00 0 0.117
9 20:00 82.2 77.2 89.3 82.1 85 SSE 2 G 8 30.02 1016.6 0.00 5 0.116
9 19:00 84.6 77.8 80 SSE 1 G 9 30.02 1016.6 0.00 88 0.112
9 18:00 87.5 77.8 73 SSE 4 G 9 30.03 1016.9 0.00 309 0.100
9 17:00 87.4 77.7 73 SE 2 G 10 30.03 1016.8 0.00 522 0.085
9 16:00 88.3 78.6 73 SSE 4 G 13 30.03 1017.1 0.00 682 0.066
9 15:00 87.7 78.8 75 SE 3 G 10 30.05 1017.6 0.00 837 0.047
9 14:00 87.5 79.0 87.8 72.9 76 S 3 G 7 30.07 1018.3 0.00 292 0.029
9 13:00 86.0 78.0 77 SE 1 G 11 30.08 1018.8 0.00 909 0.018
9 12:00 83.4 77.3 82 SSE 0 G 2 30.10 1019.2 0.00 162 0.010
9 11:00 82.7 77.0 83 SSE 2 G 4 30.11 1019.7 0.00 213 0.005
9 10:00 80.4 76.5 88 SSE 3 G 6 30.11 1019.7 0.00 109 0.003
9 09:00 75.8 74.3 95 W 2 G 7 30.13 1020.2 0.00 77 0.001
9 08:00 72.9 72.0 72.9 69.6 97 N 1 G 2 30.12 1020.1 0.00 98 0.000
9 07:00 69.9 69.0 97 Calm 30.11 1019.8 0.00 16 0.000
9 06:00 69.7 68.8 97 Calm 30.11 1019.6 0.00 0 0.000
9 05:00 70.2 69.0 96 Calm 30.10 1019.4 0.00 0 0.000
9 04:00 70.4 69.2 96 Calm 30.10 1019.3 0.00 0 0.000
9 03:00 70.2 69.0 96 Calm 30.10 1019.4 0.00 0 0.000
9 02:00 70.2 69.0 77.5 70.2 96 Calm 30.11 1019.7 0.00 0 0.000
9 01:00 70.5 69.0 95 Calm 30.11 1019.7 0.00 0 0.000
9 00:00 71.0 69.5 95 Calm 30.11 1019.8 0.01 0 0.112
8 23:00 71.8 70.0 94 Calm 30.11 1019.6 0.01 0 0.112
8 22:00 72.6 70.1 92 Calm 30.11 1019.8 0.01 0 0.112
8 21:00 74.6 71.5 90 Calm 30.11 1019.5 0.01 0 0.112
8 20:00 77.5 72.6 85.7 77.5 85 NE 0 G 1 30.08 1018.7 0.01 5 0.111
8 19:00 81.6 73.7 77 E 1 G 3 30.07 1018.3 0.01 128 0.108
8 18:00 85.5 75.0 71 SE 1 G 4 30.08 1018.6 0.01 322 0.097

Data generated by WxSolution Version 1.9.1.8, Build 2020.02.16.